sensor_id;sensor_type;location;lat;lon;timestamp;temperature;humidity
6407;DHT22;3236;51.022;6.818;2023-02-15T00:01:36;2.20;99.90
6407;DHT22;3236;51.022;6.818;2023-02-15T00:04:04;2.20;99.90
6407;DHT22;3236;51.022;6.818;2023-02-15T00:06:32;2.30;99.90
6407;DHT22;3236;51.022;6.818;2023-02-15T00:09:00;2.30;99.90
6407;DHT22;3236;51.022;6.818;2023-02-15T00:11:27;2.10;99.90
6407;DHT22;3236;51.022;6.818;2023-02-15T00:14:14;2.00;99.90
6407;DHT22;3236;51.022;6.818;2023-02-15T00:16:46;1.70;99.90
6407;DHT22;3236;51.022;6.818;2023-02-15T00:19:15;1.90;99.90
6407;DHT22;3236;51.022;6.818;2023-02-15T00:21:43;1.80;99.90
6407;DHT22;3236;51.022;6.818;2023-02-15T00:24:12;1.70;99.90
6407;DHT22;3236;51.022;6.818;2023-02-15T00:26:42;1.90;99.90
6407;DHT22;3236;51.022;6.818;2023-02-15T00:29:10;1.90;99.90
6407;DHT22;3236;51.022;6.818;2023-02-15T00:31:40;1.90;99.90
6407;DHT22;3236;51.022;6.818;2023-02-15T00:34:14;1.80;99.90
6407;DHT22;3236;51.022;6.818;2023-02-15T00:36:42;1.70;99.90
6407;DHT22;3236;51.022;6.818;2023-02-15T00:39:09;1.70;99.90
6407;DHT22;3236;51.022;6.818;2023-02-15T00:41:37;1.70;99.90
6407;DHT22;3236;51.022;6.818;2023-02-15T00:44:05;1.70;99.90
6407;DHT22;3236;51.022;6.818;2023-02-15T00:46:32;1.50;99.90
6407;DHT22;3236;51.022;6.818;2023-02-15T00:49:00;1.60;99.90
6407;DHT22;3236;51.022;6.818;2023-02-15T00:51:29;1.80;99.90
6407;DHT22;3236;51.022;6.818;2023-02-15T00:53:57;1.90;99.90
6407;DHT22;3236;51.022;6.818;2023-02-15T00:56:24;1.80;99.90
6407;DHT22;3236;51.022;6.818;2023-02-15T00:58:53;1.70;99.90
6407;DHT22;3236;51.022;6.818;2023-02-15T01:01:21;1.70;99.90
6407;DHT22;3236;51.022;6.818;2023-02-15T01:03:49;1.50;99.90
6407;DHT22;3236;51.022;6.818;2023-02-15T01:06:16;1.70;99.90
6407;DHT22;3236;51.022;6.818;2023-02-15T01:08:47;1.50;99.90
6407;DHT22;3236;51.022;6.818;2023-02-15T01:11:24;1.50;99.90
6407;DHT22;3236;51.022;6.818;2023-02-15T01:13:53;1.50;99.90
6407;DHT22;3236;51.022;6.818;2023-02-15T01:16:21;2.10;99.90
6407;DHT22;3236;51.022;6.818;2023-02-15T01:18:48;1.70;99.90
6407;DHT22;3236;51.022;6.818;2023-02-15T01:21:17;1.90;99.90
6407;DHT22;3236;51.022;6.818;2023-02-15T01:23:47;1.80;99.90
6407;DHT22;3236;51.022;6.818;2023-02-15T01:26:14;1.80;99.90
6407;DHT22;3236;51.022;6.818;2023-02-15T01:28:42;0.80;99.90
6407;DHT22;3236;51.022;6.818;2023-02-15T01:31:11;1.70;99.90
6407;DHT22;3236;51.022;6.818;2023-02-15T01:33:39;1.80;99.90
6407;DHT22;3236;51.022;6.818;2023-02-15T01:36:07;1.70;99.90
6407;DHT22;3236;51.022;6.818;2023-02-15T01:38:35;1.50;99.90
6407;DHT22;3236;51.022;6.818;2023-02-15T01:43:50;1.70;99.90
6407;DHT22;3236;51.022;6.818;2023-02-15T01:46:20;1.80;99.90
6407;DHT22;3236;51.022;6.818;2023-02-15T01:49:00;1.60;99.90
6407;DHT22;3236;51.022;6.818;2023-02-15T01:51:33;1.60;99.90
6407;DHT22;3236;51.022;6.818;2023-02-15T01:54:05;1.80;99.90
6407;DHT22;3236;51.022;6.818;2023-02-15T01:56:38;1.50;99.90
6407;DHT22;3236;51.022;6.818;2023-02-15T01:59:09;1.50;99.90
6407;DHT22;3236;51.022;6.818;2023-02-15T02:01:37;1.50;99.90
6407;DHT22;3236;51.022;6.818;2023-02-15T02:04:09;1.30;99.90
6407;DHT22;3236;51.022;6.818;2023-02-15T02:06:46;1.60;99.90
6407;DHT22;3236;51.022;6.818;2023-02-15T02:09:18;1.60;99.90
6407;DHT22;3236;51.022;6.818;2023-02-15T02:11:49;1.40;99.90
6407;DHT22;3236;51.022;6.818;2023-02-15T02:14:18;1.50;99.90
6407;DHT22;3236;51.022;6.818;2023-02-15T02:16:52;1.30;99.90
6407;DHT22;3236;51.022;6.818;2023-02-15T02:19:58;1.40;99.90
6407;DHT22;3236;51.022;6.818;2023-02-15T02:23:13;1.40;99.90
6407;DHT22;3236;51.022;6.818;2023-02-15T02:29:16;1.40;99.90
6407;DHT22;3236;51.022;6.818;2023-02-15T02:32:08;1.30;99.90
6407;DHT22;3236;51.022;6.818;2023-02-15T02:34:45;1.40;99.90
6407;DHT22;3236;51.022;6.818;2023-02-15T02:37:22;1.30;99.90
6407;DHT22;3236;51.022;6.818;2023-02-15T02:39:56;1.40;99.90
6407;DHT22;3236;51.022;6.818;2023-02-15T02:42:31;1.10;99.90
6407;DHT22;3236;51.022;6.818;2023-02-15T02:45:04;1.20;99.90
6407;DHT22;3236;51.022;6.818;2023-02-15T02:47:35;1.40;99.90
6407;DHT22;3236;51.022;6.818;2023-02-15T02:50:08;1.40;99.90
6407;DHT22;3236;51.022;6.818;2023-02-15T02:52:40;1.20;99.90
6407;DHT22;3236;51.022;6.818;2023-02-15T02:55:11;1.10;99.90
6407;DHT22;3236;51.022;6.818;2023-02-15T02:57:45;1.00;99.90
6407;DHT22;3236;51.022;6.818;2023-02-15T03:00:15;1.10;99.90
6407;DHT22;3236;51.022;6.818;2023-02-15T03:02:45;1.10;99.90
6407;DHT22;3236;51.022;6.818;2023-02-15T03:05:18;1.40;99.90
6407;DHT22;3236;51.022;6.818;2023-02-15T03:07:50;1.20;99.90
6407;DHT22;3236;51.022;6.818;2023-02-15T03:10:18;1.30;99.90
6407;DHT22;3236;51.022;6.818;2023-02-15T03:12:48;1.30;99.90
6407;DHT22;3236;51.022;6.818;2023-02-15T03:15:19;1.40;99.90
6407;DHT22;3236;51.022;6.818;2023-02-15T03:17:53;1.30;99.90
6407;DHT22;3236;51.022;6.818;2023-02-15T03:20:29;0.90;99.90
6407;DHT22;3236;51.022;6.818;2023-02-15T03:22:59;1.30;99.90
6407;DHT22;3236;51.022;6.818;2023-02-15T03:25:32;1.20;99.90
6407;DHT22;3236;51.022;6.818;2023-02-15T03:28:03;1.00;99.90
6407;DHT22;3236;51.022;6.818;2023-02-15T03:30:32;1.40;99.90
6407;DHT22;3236;51.022;6.818;2023-02-15T03:33:00;1.20;99.90
6407;DHT22;3236;51.022;6.818;2023-02-15T03:35:35;1.20;99.90
6407;DHT22;3236;51.022;6.818;2023-02-15T03:38:07;1.30;99.90
6407;DHT22;3236;51.022;6.818;2023-02-15T03:40:39;1.10;99.90
6407;DHT22;3236;51.022;6.818;2023-02-15T03:43:37;0.90;99.90
6407;DHT22;3236;51.022;6.818;2023-02-15T03:46:11;1.20;99.90
6407;DHT22;3236;51.022;6.818;2023-02-15T03:48:41;1.10;99.90
6407;DHT22;3236;51.022;6.818;2023-02-15T03:51:16;1.00;99.90
6407;DHT22;3236;51.022;6.818;2023-02-15T03:54:07;0.90;99.90
6407;DHT22;3236;51.022;6.818;2023-02-15T03:56:36;0.90;99.90
6407;DHT22;3236;51.022;6.818;2023-02-15T03:59:04;1.00;99.90
6407;DHT22;3236;51.022;6.818;2023-02-15T04:01:59;1.00;99.90
6407;DHT22;3236;51.022;6.818;2023-02-15T04:04:33;1.60;99.90
6407;DHT22;3236;51.022;6.818;2023-02-15T04:07:04;0.70;99.90
6407;DHT22;3236;51.022;6.818;2023-02-15T04:09:31;1.10;99.90
6407;DHT22;3236;51.022;6.818;2023-02-15T04:12:16;0.80;99.90
6407;DHT22;3236;51.022;6.818;2023-02-15T04:14:43;0.90;99.90
6407;DHT22;3236;51.022;6.818;2023-02-15T04:17:39;0.90;99.90
6407;DHT22;3236;51.022;6.818;2023-02-15T04:20:09;1.00;99.90
6407;DHT22;3236;51.022;6.818;2023-02-15T04:22:55;0.80;99.90
6407;DHT22;3236;51.022;6.818;2023-02-15T04:25:40;0.80;99.90
6407;DHT22;3236;51.022;6.818;2023-02-15T04:28:07;0.80;99.90
6407;DHT22;3236;51.022;6.818;2023-02-15T04:30:34;0.90;99.90
6407;DHT22;3236;51.022;6.818;2023-02-15T04:33:02;0.80;99.90
6407;DHT22;3236;51.022;6.818;2023-02-15T04:35:29;0.80;99.90
6407;DHT22;3236;51.022;6.818;2023-02-15T04:37:58;0.70;99.90
6407;DHT22;3236;51.022;6.818;2023-02-15T04:40:25;0.80;99.90
6407;DHT22;3236;51.022;6.818;2023-02-15T04:42:53;1.00;99.90
6407;DHT22;3236;51.022;6.818;2023-02-15T04:45:20;1.00;99.90
6407;DHT22;3236;51.022;6.818;2023-02-15T04:47:47;0.70;99.90
6407;DHT22;3236;51.022;6.818;2023-02-15T04:50:16;0.70;99.90
6407;DHT22;3236;51.022;6.818;2023-02-15T04:52:43;0.80;99.90
6407;DHT22;3236;51.022;6.818;2023-02-15T04:55:11;0.80;99.90
6407;DHT22;3236;51.022;6.818;2023-02-15T04:57:39;0.70;99.90
6407;DHT22;3236;51.022;6.818;2023-02-15T05:00:07;0.60;99.90
6407;DHT22;3236;51.022;6.818;2023-02-15T05:02:35;0.30;99.90
6407;DHT22;3236;51.022;6.818;2023-02-15T05:05:02;0.60;99.90
6407;DHT22;3236;51.022;6.818;2023-02-15T05:07:29;0.60;99.90
6407;DHT22;3236;51.022;6.818;2023-02-15T05:09:59;0.80;99.90
6407;DHT22;3236;51.022;6.818;2023-02-15T05:12:28;0.60;99.90
6407;DHT22;3236;51.022;6.818;2023-02-15T05:14:55;0.50;99.90
6407;DHT22;3236;51.022;6.818;2023-02-15T05:17:23;0.50;99.90
6407;DHT22;3236;51.022;6.818;2023-02-15T05:19:50;0.60;99.90
6407;DHT22;3236;51.022;6.818;2023-02-15T05:22:17;0.50;99.90
6407;DHT22;3236;51.022;6.818;2023-02-15T05:24:44;0.80;99.90
6407;DHT22;3236;51.022;6.818;2023-02-15T05:27:30;0.60;99.90
6407;DHT22;3236;51.022;6.818;2023-02-15T05:30:15;0.60;99.90
6407;DHT22;3236;51.022;6.818;2023-02-15T05:32:42;0.60;99.90
6407;DHT22;3236;51.022;6.818;2023-02-15T05:35:14;0.90;99.90
6407;DHT22;3236;51.022;6.818;2023-02-15T05:37:41;0.40;99.90
6407;DHT22;3236;51.022;6.818;2023-02-15T05:40:11;0.70;99.90
6407;DHT22;3236;51.022;6.818;2023-02-15T05:45:07;1.40;99.90
6407;DHT22;3236;51.022;6.818;2023-02-15T05:47:34;0.70;99.90
6407;DHT22;3236;51.022;6.818;2023-02-15T05:50:01;0.70;99.90
6407;DHT22;3236;51.022;6.818;2023-02-15T05:52:28;0.80;99.90
6407;DHT22;3236;51.022;6.818;2023-02-15T05:54:55;0.80;99.90
6407;DHT22;3236;51.022;6.818;2023-02-15T05:57:26;0.50;99.90
6407;DHT22;3236;51.022;6.818;2023-02-15T05:59:59;0.60;99.90
6407;DHT22;3236;51.022;6.818;2023-02-15T06:02:34;0.60;99.90
6407;DHT22;3236;51.022;6.818;2023-02-15T06:05:01;0.70;99.90
6407;DHT22;3236;51.022;6.818;2023-02-15T06:07:28;0.40;99.90
6407;DHT22;3236;51.022;6.818;2023-02-15T06:09:55;0.70;99.90
6407;DHT22;3236;51.022;6.818;2023-02-15T06:12:22;1.00;99.90
6407;DHT22;3236;51.022;6.818;2023-02-15T06:14:50;0.20;99.90
6407;DHT22;3236;51.022;6.818;2023-02-15T06:17:27;0.60;99.90
6407;DHT22;3236;51.022;6.818;2023-02-15T06:19:54;0.40;99.90
6407;DHT22;3236;51.022;6.818;2023-02-15T06:22:21;0.50;99.90
6407;DHT22;3236;51.022;6.818;2023-02-15T06:24:48;0.60;99.90
6407;DHT22;3236;51.022;6.818;2023-02-15T06:27:15;0.50;99.90
6407;DHT22;3236;51.022;6.818;2023-02-15T06:29:42;1.80;99.90
6407;DHT22;3236;51.022;6.818;2023-02-15T06:38:00;0.70;99.90
6407;DHT22;3236;51.022;6.818;2023-02-15T06:40:28;0.30;99.90
6407;DHT22;3236;51.022;6.818;2023-02-15T06:42:55;0.60;99.90
6407;DHT22;3236;51.022;6.818;2023-02-15T06:45:22;0.20;99.90
6407;DHT22;3236;51.022;6.818;2023-02-15T06:47:49;0.40;99.90
6407;DHT22;3236;51.022;6.818;2023-02-15T06:50:19;0.60;99.90
6407;DHT22;3236;51.022;6.818;2023-02-15T06:55:25;0.90;99.90
6407;DHT22;3236;51.022;6.818;2023-02-15T06:57:53;0.60;99.90
6407;DHT22;3236;51.022;6.818;2023-02-15T07:00:20;0.90;99.90
6407;DHT22;3236;51.022;6.818;2023-02-15T07:02:52;0.60;99.90
6407;DHT22;3236;51.022;6.818;2023-02-15T07:05:20;0.40;99.90
6407;DHT22;3236;51.022;6.818;2023-02-15T07:07:47;0.70;99.90
6407;DHT22;3236;51.022;6.818;2023-02-15T07:10:15;0.80;99.90
6407;DHT22;3236;51.022;6.818;2023-02-15T07:12:43;0.40;99.90
6407;DHT22;3236;51.022;6.818;2023-02-15T07:15:13;0.80;99.90
6407;DHT22;3236;51.022;6.818;2023-02-15T07:17:40;0.70;99.90
6407;DHT22;3236;51.022;6.818;2023-02-15T07:20:12;0.70;99.90
6407;DHT22;3236;51.022;6.818;2023-02-15T07:22:39;0.80;99.90
6407;DHT22;3236;51.022;6.818;2023-02-15T07:25:10;0.70;99.90
6407;DHT22;3236;51.022;6.818;2023-02-15T07:27:37;0.70;99.90
6407;DHT22;3236;51.022;6.818;2023-02-15T07:30:09;0.90;99.90
6407;DHT22;3236;51.022;6.818;2023-02-15T07:32:37;0.90;99.90
6407;DHT22;3236;51.022;6.818;2023-02-15T07:35:25;1.30;99.90
6407;DHT22;3236;51.022;6.818;2023-02-15T07:37:52;1.10;99.90
6407;DHT22;3236;51.022;6.818;2023-02-15T07:40:19;1.30;99.90
6407;DHT22;3236;51.022;6.818;2023-02-15T07:42:49;1.20;99.90
6407;DHT22;3236;51.022;6.818;2023-02-15T07:45:18;1.20;99.90
6407;DHT22;3236;51.022;6.818;2023-02-15T07:47:46;1.60;99.90
6407;DHT22;3236;51.022;6.818;2023-02-15T07:50:13;1.70;99.90
6407;DHT22;3236;51.022;6.818;2023-02-15T07:52:40;1.50;99.90
6407;DHT22;3236;51.022;6.818;2023-02-15T07:55:08;1.40;99.90
6407;DHT22;3236;51.022;6.818;2023-02-15T07:57:45;1.60;99.90
6407;DHT22;3236;51.022;6.818;2023-02-15T08:00:14;1.60;99.90
6407;DHT22;3236;51.022;6.818;2023-02-15T08:02:47;1.70;99.90
6407;DHT22;3236;51.022;6.818;2023-02-15T08:05:34;1.80;99.90
6407;DHT22;3236;51.022;6.818;2023-02-15T08:08:02;2.10;99.90
6407;DHT22;3236;51.022;6.818;2023-02-15T08:10:29;1.60;99.90
6407;DHT22;3236;51.022;6.818;2023-02-15T08:13:10;2.00;99.90
6407;DHT22;3236;51.022;6.818;2023-02-15T08:15:37;2.20;99.90
6407;DHT22;3236;51.022;6.818;2023-02-15T08:18:08;2.10;99.90
6407;DHT22;3236;51.022;6.818;2023-02-15T08:20:35;2.20;99.90
6407;DHT22;3236;51.022;6.818;2023-02-15T08:23:02;2.40;99.90
6407;DHT22;3236;51.022;6.818;2023-02-15T08:25:29;2.40;99.90
6407;DHT22;3236;51.022;6.818;2023-02-15T08:27:56;2.60;99.90
6407;DHT22;3236;51.022;6.818;2023-02-15T08:30:23;2.20;99.90
6407;DHT22;3236;51.022;6.818;2023-02-15T08:32:51;2.30;99.90
6407;DHT22;3236;51.022;6.818;2023-02-15T08:35:22;2.60;99.90
6407;DHT22;3236;51.022;6.818;2023-02-15T08:37:49;3.00;99.90
6407;DHT22;3236;51.022;6.818;2023-02-15T08:40:19;2.70;99.90
6407;DHT22;3236;51.022;6.818;2023-02-15T08:42:46;2.80;99.90
6407;DHT22;3236;51.022;6.818;2023-02-15T08:45:13;3.10;99.90
6407;DHT22;3236;51.022;6.818;2023-02-15T08:47:47;2.90;99.90
6407;DHT22;3236;51.022;6.818;2023-02-15T08:50:15;3.20;99.90
6407;DHT22;3236;51.022;6.818;2023-02-15T08:52:46;3.10;99.90
6407;DHT22;3236;51.022;6.818;2023-02-15T08:55:13;3.40;99.90
6407;DHT22;3236;51.022;6.818;2023-02-15T08:57:41;3.70;99.90
6407;DHT22;3236;51.022;6.818;2023-02-15T09:02:38;3.60;99.90
6407;DHT22;3236;51.022;6.818;2023-02-15T09:05:11;3.40;99.90
6407;DHT22;3236;51.022;6.818;2023-02-15T09:07:39;3.70;99.90
6407;DHT22;3236;51.022;6.818;2023-02-15T09:10:09;3.80;99.90
6407;DHT22;3236;51.022;6.818;2023-02-15T09:12:36;3.90;99.90
6407;DHT22;3236;51.022;6.818;2023-02-15T09:17:31;4.30;99.90
6407;DHT22;3236;51.022;6.818;2023-02-15T09:20:01;4.10;99.90
6407;DHT22;3236;51.022;6.818;2023-02-15T09:22:29;4.40;99.90
6407;DHT22;3236;51.022;6.818;2023-02-15T09:24:57;4.10;99.90
6407;DHT22;3236;51.022;6.818;2023-02-15T09:27:25;4.50;99.90
6407;DHT22;3236;51.022;6.818;2023-02-15T09:29:55;4.50;99.90
6407;DHT22;3236;51.022;6.818;2023-02-15T09:32:28;4.90;99.90
6407;DHT22;3236;51.022;6.818;2023-02-15T09:34:55;4.80;99.90
6407;DHT22;3236;51.022;6.818;2023-02-15T09:37:24;5.10;99.90
6407;DHT22;3236;51.022;6.818;2023-02-15T09:40:00;4.80;99.90
6407;DHT22;3236;51.022;6.818;2023-02-15T09:42:49;4.80;99.90
6407;DHT22;3236;51.022;6.818;2023-02-15T09:45:49;5.20;99.90
6407;DHT22;3236;51.022;6.818;2023-02-15T09:48:43;5.00;99.90
6407;DHT22;3236;51.022;6.818;2023-02-15T09:51:28;5.10;99.90
6407;DHT22;3236;51.022;6.818;2023-02-15T09:54:17;5.20;99.90
6407;DHT22;3236;51.022;6.818;2023-02-15T09:56:55;5.50;99.90
6407;DHT22;3236;51.022;6.818;2023-02-15T09:59:33;5.20;99.90
6407;DHT22;3236;51.022;6.818;2023-02-15T10:02:17;5.20;99.90
6407;DHT22;3236;51.022;6.818;2023-02-15T10:04:54;5.40;99.90
6407;DHT22;3236;51.022;6.818;2023-02-15T10:10:11;5.90;99.90
6407;DHT22;3236;51.022;6.818;2023-02-15T10:12:56;6.00;99.90
6407;DHT22;3236;51.022;6.818;2023-02-15T10:15:35;6.00;99.90
6407;DHT22;3236;51.022;6.818;2023-02-15T10:18:21;6.20;99.90
6407;DHT22;3236;51.022;6.818;2023-02-15T10:20:56;6.50;99.90
6407;DHT22;3236;51.022;6.818;2023-02-15T10:23:47;6.30;99.90
6407;DHT22;3236;51.022;6.818;2023-02-15T10:26:18;6.60;99.90
6407;DHT22;3236;51.022;6.818;2023-02-15T10:28:48;6.50;99.90
6407;DHT22;3236;51.022;6.818;2023-02-15T10:31:33;6.20;99.90
6407;DHT22;3236;51.022;6.818;2023-02-15T10:34:15;6.50;99.90
6407;DHT22;3236;51.022;6.818;2023-02-15T10:39:54;6.80;99.90
6407;DHT22;3236;51.022;6.818;2023-02-15T10:42:35;7.10;99.90
6407;DHT22;3236;51.022;6.818;2023-02-15T10:45:16;6.90;99.90
6407;DHT22;3236;51.022;6.818;2023-02-15T10:48:09;7.60;99.90
6407;DHT22;3236;51.022;6.818;2023-02-15T10:50:47;7.40;99.90
6407;DHT22;3236;51.022;6.818;2023-02-15T10:53:43;7.40;99.90
6407;DHT22;3236;51.022;6.818;2023-02-15T10:56:20;7.80;99.90
6407;DHT22;3236;51.022;6.818;2023-02-15T11:01:59;7.50;99.90
6407;DHT22;3236;51.022;6.818;2023-02-15T11:04:58;7.70;99.90
6407;DHT22;3236;51.022;6.818;2023-02-15T11:07:32;8.30;99.90
6407;DHT22;3236;51.022;6.818;2023-02-15T11:10:11;7.90;99.90
6407;DHT22;3236;51.022;6.818;2023-02-15T11:12:42;8.20;99.90
6407;DHT22;3236;51.022;6.818;2023-02-15T11:15:17;8.40;99.90
6407;DHT22;3236;51.022;6.818;2023-02-15T11:17:49;8.50;99.90
6407;DHT22;3236;51.022;6.818;2023-02-15T11:20:25;8.80;99.90
6407;DHT22;3236;51.022;6.818;2023-02-15T11:22:55;8.80;99.90
6407;DHT22;3236;51.022;6.818;2023-02-15T11:25:25;9.40;99.90
6407;DHT22;3236;51.022;6.818;2023-02-15T11:27:53;9.90;99.90
6407;DHT22;3236;51.022;6.818;2023-02-15T11:30:23;10.30;99.90
6407;DHT22;3236;51.022;6.818;2023-02-15T11:32:56;10.10;99.90
6407;DHT22;3236;51.022;6.818;2023-02-15T11:35:31;11.10;99.90
6407;DHT22;3236;51.022;6.818;2023-02-15T11:38:06;10.90;99.90
6407;DHT22;3236;51.022;6.818;2023-02-15T11:40:52;11.30;99.90
6407;DHT22;3236;51.022;6.818;2023-02-15T11:43:28;12.10;99.90
6407;DHT22;3236;51.022;6.818;2023-02-15T11:50:53;12.60;99.90
6407;DHT22;3236;51.022;6.818;2023-02-15T11:53:25;13.30;99.90
6407;DHT22;3236;51.022;6.818;2023-02-15T11:55:55;13.30;99.90
6407;DHT22;3236;51.022;6.818;2023-02-15T11:58:28;14.20;99.90
6407;DHT22;3236;51.022;6.818;2023-02-15T12:01:02;14.30;99.90
6407;DHT22;3236;51.022;6.818;2023-02-15T12:03:43;14.40;99.90
6407;DHT22;3236;51.022;6.818;2023-02-15T12:06:18;15.10;99.90
6407;DHT22;3236;51.022;6.818;2023-02-15T12:08:51;15.00;99.90
6407;DHT22;3236;51.022;6.818;2023-02-15T12:11:25;15.40;99.90
6407;DHT22;3236;51.022;6.818;2023-02-15T12:13:56;14.80;99.90
6407;DHT22;3236;51.022;6.818;2023-02-15T12:16:24;15.10;99.90
6407;DHT22;3236;51.022;6.818;2023-02-15T12:18:53;14.80;99.90
6407;DHT22;3236;51.022;6.818;2023-02-15T12:21:28;14.10;99.90
6407;DHT22;3236;51.022;6.818;2023-02-15T12:24:00;14.50;99.90
6407;DHT22;3236;51.022;6.818;2023-02-15T12:26:30;13.30;99.90
6407;DHT22;3236;51.022;6.818;2023-02-15T12:28:59;15.20;99.90
6407;DHT22;3236;51.022;6.818;2023-02-15T12:31:32;15.30;98.60
6407;DHT22;3236;51.022;6.818;2023-02-15T12:34:07;15.20;98.60
6407;DHT22;3236;51.022;6.818;2023-02-15T12:36:43;15.20;99.90
6407;DHT22;3236;51.022;6.818;2023-02-15T12:39:23;15.40;99.90
6407;DHT22;3236;51.022;6.818;2023-02-15T12:42:00;16.50;99.90
6407;DHT22;3236;51.022;6.818;2023-02-15T12:44:29;17.10;96.80
6407;DHT22;3236;51.022;6.818;2023-02-15T12:46:58;16.10;98.00
6407;DHT22;3236;51.022;6.818;2023-02-15T12:49:26;16.50;98.50
6407;DHT22;3236;51.022;6.818;2023-02-15T12:51:56;16.80;98.20
6407;DHT22;3236;51.022;6.818;2023-02-15T12:54:40;17.10;96.10
6407;DHT22;3236;51.022;6.818;2023-02-15T12:57:25;17.00;94.10
6407;DHT22;3236;51.022;6.818;2023-02-15T12:59:55;17.40;96.10
6407;DHT22;3236;51.022;6.818;2023-02-15T13:02:33;16.60;95.30
6407;DHT22;3236;51.022;6.818;2023-02-15T13:05:15;18.00;92.80
6407;DHT22;3236;51.022;6.818;2023-02-15T13:07:50;18.20;91.80
6407;DHT22;3236;51.022;6.818;2023-02-15T13:10:26;17.70;92.90
6407;DHT22;3236;51.022;6.818;2023-02-15T13:12:55;18.20;92.20
6407;DHT22;3236;51.022;6.818;2023-02-15T13:15:33;18.50;91.20
6407;DHT22;3236;51.022;6.818;2023-02-15T13:18:04;17.00;91.40
6407;DHT22;3236;51.022;6.818;2023-02-15T13:20:34;17.30;91.80
6407;DHT22;3236;51.022;6.818;2023-02-15T13:23:21;17.80;91.90
6407;DHT22;3236;51.022;6.818;2023-02-15T13:25:50;17.70;90.90
6407;DHT22;3236;51.022;6.818;2023-02-15T13:28:19;17.30;90.70
6407;DHT22;3236;51.022;6.818;2023-02-15T13:30:48;17.60;92.10
6407;DHT22;3236;51.022;6.818;2023-02-15T13:33:20;17.00;92.00
6407;DHT22;3236;51.022;6.818;2023-02-15T13:35:58;17.40;90.60
6407;DHT22;3236;51.022;6.818;2023-02-15T13:38:51;17.40;91.60
6407;DHT22;3236;51.022;6.818;2023-02-15T13:41:36;17.60;91.20
6407;DHT22;3236;51.022;6.818;2023-02-15T13:44:20;17.30;91.50
6407;DHT22;3236;51.022;6.818;2023-02-15T13:47:05;17.70;90.90
6407;DHT22;3236;51.022;6.818;2023-02-15T13:49:46;17.00;89.90
6407;DHT22;3236;51.022;6.818;2023-02-15T13:52:19;17.00;88.10
6407;DHT22;3236;51.022;6.818;2023-02-15T13:54:57;19.00;90.30
6407;DHT22;3236;51.022;6.818;2023-02-15T13:57:49;21.00;85.60
6407;DHT22;3236;51.022;6.818;2023-02-15T14:00:22;21.00;84.00
6407;DHT22;3236;51.022;6.818;2023-02-15T14:03:26;21.90;77.80
6407;DHT22;3236;51.022;6.818;2023-02-15T14:06:17;22.60;74.50
6407;DHT22;3236;51.022;6.818;2023-02-15T14:08:58;22.60;71.60
6407;DHT22;3236;51.022;6.818;2023-02-15T14:11:37;22.80;70.10
6407;DHT22;3236;51.022;6.818;2023-02-15T14:14:45;23.10;68.10
6407;DHT22;3236;51.022;6.818;2023-02-15T14:17:19;22.30;68.80
6407;DHT22;3236;51.022;6.818;2023-02-15T14:19:52;21.20;68.10
6407;DHT22;3236;51.022;6.818;2023-02-15T14:22:22;21.10;67.50
6407;DHT22;3236;51.022;6.818;2023-02-15T14:25:04;19.10;73.10
6407;DHT22;3236;51.022;6.818;2023-02-15T14:27:45;19.40;72.30
6407;DHT22;3236;51.022;6.818;2023-02-15T14:30:18;19.10;72.70
6407;DHT22;3236;51.022;6.818;2023-02-15T14:32:48;18.80;75.70
6407;DHT22;3236;51.022;6.818;2023-02-15T14:35:18;18.20;76.30
6407;DHT22;3236;51.022;6.818;2023-02-15T14:37:49;18.60;77.70
6407;DHT22;3236;51.022;6.818;2023-02-15T14:40:30;18.40;76.20
6407;DHT22;3236;51.022;6.818;2023-02-15T14:43:23;18.10;81.50
6407;DHT22;3236;51.022;6.818;2023-02-15T14:45:54;17.30;80.10
6407;DHT22;3236;51.022;6.818;2023-02-15T14:48:26;17.70;79.60
6407;DHT22;3236;51.022;6.818;2023-02-15T14:50:56;17.50;78.50
6407;DHT22;3236;51.022;6.818;2023-02-15T14:53:34;17.70;81.50
6407;DHT22;3236;51.022;6.818;2023-02-15T14:56:20;17.30;82.00
6407;DHT22;3236;51.022;6.818;2023-02-15T14:59:13;16.70;81.40
6407;DHT22;3236;51.022;6.818;2023-02-15T15:01:41;16.00;82.70
6407;DHT22;3236;51.022;6.818;2023-02-15T15:04:11;15.90;83.80
6407;DHT22;3236;51.022;6.818;2023-02-15T15:06:42;15.40;87.80
6407;DHT22;3236;51.022;6.818;2023-02-15T15:09:19;15.40;88.20
6407;DHT22;3236;51.022;6.818;2023-02-15T15:11:50;15.00;89.60
6407;DHT22;3236;51.022;6.818;2023-02-15T15:14:39;14.60;90.60
6407;DHT22;3236;51.022;6.818;2023-02-15T15:17:10;14.40;90.60
6407;DHT22;3236;51.022;6.818;2023-02-15T15:20:11;14.10;91.70
6407;DHT22;3236;51.022;6.818;2023-02-15T15:22:41;13.20;93.10
6407;DHT22;3236;51.022;6.818;2023-02-15T15:25:42;13.50;94.50
6407;DHT22;3236;51.022;6.818;2023-02-15T15:31:44;12.90;97.60
6407;DHT22;3236;51.022;6.818;2023-02-15T15:43:46;11.90;99.90
6407;DHT22;3236;51.022;6.818;2023-02-15T15:46:48;12.10;99.90
6407;DHT22;3236;51.022;6.818;2023-02-15T15:49:23;12.70;99.90
6407;DHT22;3236;51.022;6.818;2023-02-15T15:54:24;11.30;99.90
6407;DHT22;3236;51.022;6.818;2023-02-15T15:56:53;11.50;99.90
6407;DHT22;3236;51.022;6.818;2023-02-15T15:59:25;11.40;99.90
6407;DHT22;3236;51.022;6.818;2023-02-15T16:01:54;12.00;99.90
6407;DHT22;3236;51.022;6.818;2023-02-15T16:04:26;10.90;99.90
6407;DHT22;3236;51.022;6.818;2023-02-15T16:06:54;11.10;99.90
6407;DHT22;3236;51.022;6.818;2023-02-15T16:09:23;10.60;99.90
6407;DHT22;3236;51.022;6.818;2023-02-15T16:11:55;10.90;99.90
6407;DHT22;3236;51.022;6.818;2023-02-15T16:14:28;10.70;99.90
6407;DHT22;3236;51.022;6.818;2023-02-15T16:17:03;10.30;99.90
6407;DHT22;3236;51.022;6.818;2023-02-15T16:19:40;10.00;99.90
6407;DHT22;3236;51.022;6.818;2023-02-15T16:22:15;10.10;99.90
6407;DHT22;3236;51.022;6.818;2023-02-15T16:25:04;9.80;99.90
6407;DHT22;3236;51.022;6.818;2023-02-15T16:27:35;10.00;99.90
6407;DHT22;3236;51.022;6.818;2023-02-15T16:30:26;9.90;99.90
6407;DHT22;3236;51.022;6.818;2023-02-15T16:35:32;9.60;99.90
6407;DHT22;3236;51.022;6.818;2023-02-15T16:40:45;9.50;99.90
6407;DHT22;3236;51.022;6.818;2023-02-15T16:43:19;9.30;99.90
6407;DHT22;3236;51.022;6.818;2023-02-15T16:45:48;9.00;99.90
6407;DHT22;3236;51.022;6.818;2023-02-15T16:48:26;8.80;99.90
6407;DHT22;3236;51.022;6.818;2023-02-15T16:50:56;8.70;99.90
6407;DHT22;3236;51.022;6.818;2023-02-15T16:53:26;8.40;99.90
6407;DHT22;3236;51.022;6.818;2023-02-15T16:55:55;8.40;99.90
6407;DHT22;3236;51.022;6.818;2023-02-15T16:58:28;8.40;99.90
6407;DHT22;3236;51.022;6.818;2023-02-15T17:01:03;8.20;99.90
6407;DHT22;3236;51.022;6.818;2023-02-15T17:03:35;8.10;99.90
6407;DHT22;3236;51.022;6.818;2023-02-15T17:06:18;7.90;99.90
6407;DHT22;3236;51.022;6.818;2023-02-15T17:11:15;7.90;99.90
6407;DHT22;3236;51.022;6.818;2023-02-15T17:17:00;7.60;99.90
6407;DHT22;3236;51.022;6.818;2023-02-15T17:19:31;7.70;99.90
6407;DHT22;3236;51.022;6.818;2023-02-15T17:22:01;7.40;99.90
6407;DHT22;3236;51.022;6.818;2023-02-15T17:24:35;7.10;99.90
6407;DHT22;3236;51.022;6.818;2023-02-15T17:27:06;7.40;99.90
6407;DHT22;3236;51.022;6.818;2023-02-15T17:29:36;7.40;99.90
6407;DHT22;3236;51.022;6.818;2023-02-15T17:32:14;7.10;99.90
6407;DHT22;3236;51.022;6.818;2023-02-15T17:34:49;7.10;99.90
6407;DHT22;3236;51.022;6.818;2023-02-15T17:37:28;7.10;99.90
6407;DHT22;3236;51.022;6.818;2023-02-15T17:40:00;7.20;99.90
6407;DHT22;3236;51.022;6.818;2023-02-15T17:42:32;7.40;99.90
6407;DHT22;3236;51.022;6.818;2023-02-15T17:47:35;7.40;99.90
6407;DHT22;3236;51.022;6.818;2023-02-15T17:50:10;7.50;99.90
6407;DHT22;3236;51.022;6.818;2023-02-15T17:55:14;7.50;99.90
6407;DHT22;3236;51.022;6.818;2023-02-15T18:05:59;7.20;99.90
6407;DHT22;3236;51.022;6.818;2023-02-15T18:08:47;7.10;99.90
6407;DHT22;3236;51.022;6.818;2023-02-15T18:11:37;7.00;99.90